Time;durP1;ratioP1;P1;durP2;ratioP2;P2;SDS_P1;SDS_P2;PMS_P1;PMS_P2;Temp;Humidity;BMP_temperature;BMP_pressure;BME280_temperature;BME280_humidity;BME280_pressure;Samples;Min_cycle;Max_cycle;Signal;HPM_P1;HPM_P2
2023/06/07 00:01:26;;;;;;;;;;;;;;;20.87;79.79;101235.56;5005023;28;19929;-84
2023/06/07 00:03:53;;;;;;;;;;;;;;;20.82;80.24;101239.88;5024162;28;19928;-83
2023/06/07 00:06:19;;;;;;;;;;;;;;;20.81;80.16;101230.94;5019012;28;19924;-85
2023/06/07 00:08:46;;;;;;;;;;;;;;;20.81;80.12;101228.25;5016190;28;20393;-84
2023/06/07 00:11:12;;;;;;;;;;;;;;;20.77;80.01;101228.81;5031211;28;19925;-82
2023/06/07 00:13:39;;;;;;;;;;;;;;;20.77;79.85;101229.63;5016844;28;19935;-83
2023/06/07 00:16:08;;;;;;;;;;;;;;;20.77;80.06;101223.41;5017014;28;20540;-82
2023/06/07 00:18:35;;;;;;;;;;;;;;;20.75;80.07;101223.59;5025572;28;20278;-81
2023/06/07 00:21:04;;;;;;;;;;;;;;;20.70;79.95;101224.19;5014719;28;19982;-84
2023/06/07 00:23:31;;;;;;;;;;;;;;;20.67;79.80;101213.75;5027515;28;19924;-81
2023/06/07 00:25:59;;;;;;;;;;;;;;;20.67;79.82;101211.03;5019338;28;20034;-82
2023/06/07 00:28:26;;;;;;;;;;;;;;;20.68;79.42;101212.75;5024700;28;20029;-84
2023/06/07 00:30:55;;;;;;;;;;;;;;;20.63;79.47;101211.59;5014499;28;20004;-82
2023/06/07 00:33:21;;;;;;;;;;;;;;;20.60;79.66;101210.13;4997664;28;20374;-83
2023/06/07 00:35:48;;;;;;;;;;;;;;;20.62;79.84;101207.25;4996459;28;19925;-85
2023/06/07 00:38:20;;;;;;;;;;;;;;;20.59;79.64;101205.75;4996310;28;19929;-85
2023/06/07 00:40:54;;;;;;;;;;;;;;;20.56;78.84;101211.53;4996314;28;19936;-81
2023/06/07 00:43:21;;;;;;;;;;;;;;;20.58;78.29;101209.47;4994751;28;20022;-81
2023/06/07 00:45:48;;;;;;;;;;;;;;;20.53;77.88;101203.78;5013916;28;19947;-81
2023/06/07 00:48:17;;;;;;;;;;;;;;;20.49;77.49;101205.19;5017106;28;19936;-83
2023/06/07 00:50:46;;;;;;;;;;;;;;;20.48;78.23;101207.03;5034243;28;19924;-85
2023/06/07 00:53:13;;;;;;;;;;;;;;;20.55;76.44;101199.06;5021910;28;19925;-81
2023/06/07 00:55:40;;;;;;;;;;;;;;;20.63;75.37;101196.28;5036075;28;19960;-81
2023/06/07 00:58:07;;;;;;;;;;;;;;;20.78;75.16;101190.88;5040410;28;19934;-82
2023/06/07 01:00:34;;;;;;;;;;;;;;;20.82;73.76;101191.31;5027192;28;20158;-83
2023/06/07 01:03:01;;;;;;;;;;;;;;;20.64;75.54;101195.25;5023882;28;19924;-81
2023/06/07 01:05:27;;;;;;;;;;;;;;;20.55;75.99;101190.97;5037631;28;19924;-81
2023/06/07 01:07:57;;;;;;;;;;;;;;;20.48;76.71;101198.09;5022866;28;19948;-82
2023/06/07 01:10:24;;;;;;;;;;;;;;;20.43;76.62;101190.56;5040603;28;20327;-83
2023/06/07 01:12:54;;;;;;;;;;;;;;;20.09;76.76;101139.94;5022990;28;20313;-83
2023/06/07 01:15:24;;;;;;;;;;;;;;;20.40;76.66;101190.13;5044300;28;19924;-81
2023/06/07 01:17:57;;;;;;;;;;;;;;;20.38;76.98;101187.59;5000868;28;20091;-85
2023/06/07 01:20:35;;;;;;;;;;;;;;;20.37;76.82;101194.03;5027446;28;20594;-82
2023/06/07 01:23:09;;;;;;;;;;;;;;;20.37;76.96;101193.19;5031909;28;20161;-82
2023/06/07 01:25:35;;;;;;;;;;;;;;;20.31;77.23;101191.25;5039067;28;19931;-82
2023/06/07 01:28:03;;;;;;;;;;;;;;;20.28;77.82;101193.28;5017062;28;19990;-82
2023/06/07 01:30:31;;;;;;;;;;;;;;;20.31;78.12;101197.47;5035446;28;20425;-83
2023/06/07 01:33:00;;;;;;;;;;;;;;;20.27;78.34;101194.31;5040682;28;19925;-82
2023/06/07 01:35:27;;;;;;;;;;;;;;;20.22;78.70;101194.03;5037302;28;20345;-82
2023/06/07 01:37:57;;;;;;;;;;;;;;;20.19;78.98;101191.69;5032960;28;19934;-84
2023/06/07 01:40:28;;;;;;;;;;;;;;;19.82;79.17;101138.72;5021018;28;20294;-82
2023/06/07 01:42:55;;;;;;;;;;;;;;;20.10;79.99;101195.53;5039298;28;19928;-82
2023/06/07 01:45:25;;;;;;;;;;;;;;;20.06;80.96;101186.94;5041573;28;19924;-84
2023/06/07 01:47:59;;;;;;;;;;;;;;;20.01;81.00;101194.75;5043462;28;19999;-82
2023/06/07 01:50:26;;;;;;;;;;;;;;;19.99;81.36;101198.66;5022512;28;20431;-83
2023/06/07 01:52:52;;;;;;;;;;;;;;;19.97;81.63;101188.03;5001682;28;20258;-83
2023/06/07 01:55:21;;;;;;;;;;;;;;;20.01;81.46;101181.28;5019115;28;19924;-83
2023/06/07 01:58:00;;;;;;;;;;;;;;;20.17;80.18;101185.66;5002220;28;19929;-84
2023/06/07 02:00:34;;;;;;;;;;;;;;;19.85;80.28;101144.59;5008710;28;20354;-84
2023/06/07 02:03:12;;;;;;;;;;;;;;;20.04;80.55;101185.47;5005355;28;20374;-84
2023/06/07 02:05:45;;;;;;;;;;;;;;;19.97;80.04;101188.03;5005542;28;19924;-85
2023/06/07 02:08:38;;;;;;;;;;;;;;;19.85;80.70;101171.53;5011524;28;20376;-83
2023/06/07 02:11:06;;;;;;;;;;;;;;;19.91;80.48;101182.59;4995471;28;19924;-83
2023/06/07 02:13:36;;;;;;;;;;;;;;;19.70;80.22;101142.88;4999796;28;20440;-84
2023/06/07 02:16:08;;;;;;;;;;;;;;;19.94;79.09;101187.59;4978283;28;19990;-84
2023/06/07 02:18:40;;;;;;;;;;;;;;;19.87;79.00;101179.41;4996998;28;19932;-83
2023/06/07 02:21:10;;;;;;;;;;;;;;;19.82;79.29;101188.03;5005296;28;20263;-83
2023/06/07 02:23:37;;;;;;;;;;;;;;;19.81;79.30;101197.16;5005500;28;20434;-83
2023/06/07 02:26:07;;;;;;;;;;;;;;;19.81;79.49;101204.41;4982135;28;19928;-83
2023/06/07 02:28:41;;;;;;;;;;;;;;;19.63;79.48;101157.03;4992243;28;19952;-84
2023/06/07 02:31:17;;;;;;;;;;;;;;;20.00;80.53;101208.41;4960471;28;20199;-83
2023/06/07 02:33:49;;;;;;;;;;;;;;;19.93;80.35;101199.38;4961012;28;20189;-82
2023/06/07 02:36:32;;;;;;;;;;;;;;;19.94;80.81;101217.25;4965366;28;19924;-84
2023/06/07 02:39:00;;;;;;;;;;;;;;;19.90;80.91;101224.00;4989721;28;19925;-83
2023/06/07 02:41:29;;;;;;;;;;;;;;;19.65;80.57;101173.00;4951690;28;19925;-82
2023/06/07 02:44:00;;;;;;;;;;;;;;;19.49;81.03;101173.16;4986318;28;20111;-82
2023/06/07 02:46:32;;;;;;;;;;;;;;;19.70;81.37;101219.13;4992242;28;19925;-82
2023/06/07 02:49:01;;;;;;;;;;;;;;;19.67;81.56;101215.94;4993963;28;20261;-82
2023/06/07 02:51:38;;;;;;;;;;;;;;;19.67;81.67;101215.94;4959057;28;19986;-83
2023/06/07 02:54:15;;;;;;;;;;;;;;;19.62;81.25;101235.31;4964797;28;20478;-83
2023/06/07 02:56:47;;;;;;;;;;;;;;;19.67;81.18;101237.47;4972176;28;20214;-82
2023/06/07 02:59:14;;;;;;;;;;;;;;;19.65;80.79;101237.66;4995906;28;20043;-82
2023/06/07 03:01:41;;;;;;;;;;;;;;;19.67;80.88;101232.94;4992347;28;20216;-84
2023/06/07 03:04:07;;;;;;;;;;;;;;;19.71;80.96;101236.13;5018843;28;19978;-83
2023/06/07 03:06:34;;;;;;;;;;;;;;;19.76;80.45;101239.97;5025474;28;19932;-84
2023/06/07 03:09:01;;;;;;;;;;;;;;;19.70;80.80;101240.66;5033434;28;20101;-84
2023/06/07 03:11:27;;;;;;;;;;;;;;;19.69;80.75;101236.31;5014380;28;19928;-83
2023/06/07 03:13:58;;;;;;;;;;;;;;;19.67;80.50;101237.47;5011940;28;20281;-83
2023/06/07 03:16:25;;;;;;;;;;;;;;;19.67;80.32;101241.00;5017492;28;19924;-84
2023/06/07 03:18:52;;;;;;;;;;;;;;;19.62;80.35;101240.72;5028657;28;19973;-82
2023/06/07 03:21:21;;;;;;;;;;;;;;;19.63;80.16;101237.00;5039266;28;19960;-84
2023/06/07 03:23:48;;;;;;;;;;;;;;;19.67;79.93;101232.94;5020886;28;19931;-84
2023/06/07 03:26:16;;;;;;;;;;;;;;;19.79;79.35;101246.84;5014869;28;20132;-83
2023/06/07 03:28:46;;;;;;;;;;;;;;;19.40;79.77;101189.38;5014698;28;19932;-84
2023/06/07 03:31:18;;;;;;;;;;;;;;;19.68;79.83;101239.19;5022765;28;20380;-82
2023/06/07 03:33:45;;;;;;;;;;;;;;;19.64;80.11;101244.06;5035206;28;20361;-84
2023/06/07 03:36:14;;;;;;;;;;;;;;;19.62;80.07;101244.25;5034050;28;19931;-84
2023/06/07 03:38:40;;;;;;;;;;;;;;;19.60;80.19;101248.13;5037986;28;19928;-85
2023/06/07 03:41:07;;;;;;;;;;;;;;;19.54;80.64;101243.44;5014652;28;20201;-82
2023/06/07 03:43:37;;;;;;;;;;;;;;;19.53;80.55;101248.00;5015355;28;19924;-82
2023/06/07 03:46:06;;;;;;;;;;;;;;;19.51;80.52;101247.34;5034656;28;20357;-84
2023/06/07 03:48:33;;;;;;;;;;;;;;;19.50;80.83;101255.63;5037563;28;20436;-82
2023/06/07 03:51:01;;;;;;;;;;;;;;;19.48;81.17;101255.78;5015910;28;19977;-81
2023/06/07 03:53:35;;;;;;;;;;;;;;;19.45;81.12;101250.75;5012927;28;19975;-81
2023/06/07 03:56:02;;;;;;;;;;;;;;;19.45;81.47;101250.75;5014773;28;19935;-83
2023/06/07 03:58:28;;;;;;;;;;;;;;;19.42;81.56;101245.75;5013232;28;19935;-84
2023/06/07 04:00:55;;;;;;;;;;;;;;;19.44;81.62;101243.69;5005843;28;19932;-83
2023/06/07 04:03:24;;;;;;;;;;;;;;;19.46;81.26;101246.22;5010348;28;20339;-84
2023/06/07 04:05:54;;;;;;;;;;;;;;;19.54;80.95;101238.94;5003864;28;20255;-83
2023/06/07 04:08:23;;;;;;;;;;;;;;;19.32;80.03;101192.13;5013880;28;19925;-84
2023/06/07 04:10:51;;;;;;;;;;;;;;;19.64;80.31;101234.13;4996839;28;19925;-82
2023/06/07 04:13:23;;;;;;;;;;;;;;;19.72;80.31;101241.31;5003443;28;19924;-83
2023/06/07 04:15:55;;;;;;;;;;;;;;;19.73;80.28;101247.56;4995129;28;19928;-81
2023/06/07 04:18:21;;;;;;;;;;;;;;;19.80;79.58;101249.34;5012052;28;19979;-83
2023/06/07 04:20:51;;;;;;;;;;;;;;;19.75;80.18;101238.25;4999552;28;19925;-82
2023/06/07 04:23:17;;;;;;;;;;;;;;;19.73;80.47;101237.59;4993851;28;19975;-83
2023/06/07 04:25:46;;;;;;;;;;;;;;;19.74;80.88;101233.91;5011993;28;19925;-83
2023/06/07 04:28:15;;;;;;;;;;;;;;;19.78;80.81;101231.69;5015050;28;19947;-82
2023/06/07 04:30:42;;;;;;;;;;;;;;;19.81;80.77;101242.94;5039430;28;19932;-84
2023/06/07 04:33:13;;;;;;;;;;;;;;;19.88;80.42;101239.50;5017893;28;20152;-82
2023/06/07 04:35:43;;;;;;;;;;;;;;;20.00;80.22;101240.75;5043162;28;19932;-84
2023/06/07 04:38:20;;;;;;;;;;;;;;;20.06;79.21;101237.31;5024030;28;19925;-84
2023/06/07 04:40:49;;;;;;;;;;;;;;;20.03;78.75;101237.69;5022433;28;20019;-82
2023/06/07 04:43:23;;;;;;;;;;;;;;;19.75;78.40;101187.09;5020658;28;20036;-83
2023/06/07 04:46:09;;;;;;;;;;;;;;;20.15;77.58;101243.50;5007817;28;19924;-83
2023/06/07 04:48:43;;;;;;;;;;;;;;;20.18;77.46;101241.25;5010974;28;20400;-85
2023/06/07 04:51:09;;;;;;;;;;;;;;;20.24;76.87;101245.91;4994187;28;19924;-80
2023/06/07 04:53:41;;;;;;;;;;;;;;;20.02;77.84;101187.50;5013494;28;19932;-84
2023/06/07 04:56:12;;;;;;;;;;;;;;;20.32;77.64;101247.69;5008219;28;20386;-83
2023/06/07 04:58:52;;;;;;;;;;;;;;;20.37;77.29;101247.13;5039204;28;19924;-83
2023/06/07 05:01:19;;;;;;;;;;;;;;;20.42;76.98;101247.41;5031318;28;19928;-83
2023/06/07 05:03:45;;;;;;;;;;;;;;;20.47;76.25;101251.22;5023852;28;19939;-82
2023/06/07 05:06:12;;;;;;;;;;;;;;;20.50;75.50;101244.59;5011913;28;20431;-82
2023/06/07 05:08:40;;;;;;;;;;;;;;;20.55;74.64;101253.00;5012954;28;19935;-83
2023/06/07 05:11:10;;;;;;;;;;;;;;;20.55;74.67;101244.91;5006148;28;20341;-82
2023/06/07 05:13:37;;;;;;;;;;;;;;;20.63;74.30;101246.69;5028425;28;20342;-83
2023/06/07 05:16:04;;;;;;;;;;;;;;;20.54;75.37;101250.47;5019169;28;19950;-82
2023/06/07 05:18:30;;;;;;;;;;;;;;;20.61;74.59;101254.16;5031642;28;19924;-84
2023/06/07 05:20:57;;;;;;;;;;;;;;;20.05;74.52;101170.97;5043177;28;20339;-83
2023/06/07 05:23:25;;;;;;;;;;;;;;;20.58;74.25;101260.72;5025772;28;20212;-82
2023/06/07 05:25:52;;;;;;;;;;;;;;;20.59;74.57;101264.28;5034269;28;20007;-82
2023/06/07 05:28:19;;;;;;;;;;;;;;;20.64;74.62;101270.78;5043847;28;20011;-83
2023/06/07 05:30:45;;;;;;;;;;;;;;;20.64;74.79;101265.38;5011747;28;20013;-82
2023/06/07 05:33:12;;;;;;;;;;;;;;;20.62;75.62;101263.91;5019623;28;19925;-84
2023/06/07 05:35:44;;;;;;;;;;;;;;;20.70;74.58;101264.66;5021532;28;20411;-83
2023/06/07 05:38:11;;;;;;;;;;;;;;;20.72;74.92;101271.72;5026951;28;19928;-84
2023/06/07 05:40:38;;;;;;;;;;;;;;;20.69;75.25;101270.22;5037531;28;19977;-83
2023/06/07 05:43:06;;;;;;;;;;;;;;;20.74;75.02;101277.75;5032088;28;19939;-83
2023/06/07 05:45:35;;;;;;;;;;;;;;;20.72;75.03;101275.25;4989436;28;19924;-83
2023/06/07 05:48:02;;;;;;;;;;;;;;;20.84;74.00;101275.59;5016221;28;19935;-83
2023/06/07 05:50:29;;;;;;;;;;;;;;;20.83;74.59;101277.47;5008086;28;20314;-82
2023/06/07 05:52:57;;;;;;;;;;;;;;;20.74;75.46;101280.47;5010813;28;20456;-81
2023/06/07 05:55:24;;;;;;;;;;;;;;;20.80;75.43;101285.09;5006770;28;19932;-82
2023/06/07 05:57:53;;;;;;;;;;;;;;;20.80;75.43;101279.69;5012959;28;20406;-83
2023/06/07 06:00:24;;;;;;;;;;;;;;;20.88;75.13;101279.63;5034686;28;19959;-84
2023/06/07 06:02:56;;;;;;;;;;;;;;;20.60;75.19;101228.19;5016959;28;19944;-83
2023/06/07 06:05:27;;;;;;;;;;;;;;;21.08;74.20;101285.25;5045828;28;20106;-81
2023/06/07 06:07:55;;;;;;;;;;;;;;;20.87;73.97;101245.53;5033670;28;19925;-84
2023/06/07 06:10:22;;;;;;;;;;;;;;;21.11;74.41;101301.91;5028165;28;20359;-83
2023/06/07 06:12:55;;;;;;;;;;;;;;;20.91;73.93;101255.78;5017855;28;20304;-83
2023/06/07 06:15:29;;;;;;;;;;;;;;;20.96;73.51;101263.31;4987620;28;19933;-84
2023/06/07 06:17:56;;;;;;;;;;;;;;;21.26;73.49;101295.63;5013581;28;19935;-82
2023/06/07 06:20:23;;;;;;;;;;;;;;;21.18;74.21;101301.16;5011021;28;19931;-83
2023/06/07 06:22:50;;;;;;;;;;;;;;;21.15;74.86;101301.53;4991271;28;19955;-83
2023/06/07 06:25:20;;;;;;;;;;;;;;;20.83;74.68;101249.66;5008860;28;20362;-82
2023/06/07 06:27:59;;;;;;;;;;;;;;;21.19;74.78;101297.41;4959437;28;20451;-83
2023/06/07 06:30:34;;;;;;;;;;;;;;;21.26;75.35;101298.34;5006811;28;19960;-82
2023/06/07 06:33:01;;;;;;;;;;;;;;;21.42;75.36;101297.31;4999829;28;19929;-84
2023/06/07 06:35:28;;;;;;;;;;;;;;;21.65;74.58;101292.56;5045122;28;19940;-80
2023/06/07 06:37:56;;;;;;;;;;;;;;;21.45;74.09;101248.31;5013517;28;20274;-82
2023/06/07 06:40:23;;;;;;;;;;;;;;;21.74;73.75;101283.28;5021654;28;19924;-83
2023/06/07 06:42:49;;;;;;;;;;;;;;;21.57;75.53;101289.97;5028190;28;19972;-83
2023/06/07 06:45:16;;;;;;;;;;;;;;;21.50;75.90;101295.31;5014856;28;19924;-83
2023/06/07 06:47:43;;;;;;;;;;;;;;;21.54;76.18;101295.78;5037056;28;19935;-81
2023/06/07 06:50:13;;;;;;;;;;;;;;;21.62;75.32;101292.09;5022401;28;19928;-82
2023/06/07 06:52:57;;;;;;;;;;;;;;;21.72;75.63;101289.91;5042128;28;20591;-83
2023/06/07 06:55:24;;;;;;;;;;;;;;;21.73;76.11;101284.34;5023155;28;19924;-83
2023/06/07 06:57:51;;;;;;;;;;;;;;;21.79;76.30;101293.53;5034172;28;19924;-82
2023/06/07 07:00:21;;;;;;;;;;;;;;;21.90;75.56;101295.72;5031766;28;19928;-84
2023/06/07 07:02:56;;;;;;;;;;;;;;;21.94;75.89;101297.00;4975557;28;20560;-83
2023/06/07 07:05:30;;;;;;;;;;;;;;;21.96;75.45;101305.72;5013167;28;19933;-84
2023/06/07 07:08:01;;;;;;;;;;;;;;;22.07;75.08;101300.84;5035367;28;19928;-83
2023/06/07 07:10:27;;;;;;;;;;;;;;;22.18;74.75;101293.00;4999095;28;20488;-84
2023/06/07 07:12:54;;;;;;;;;;;;;;;22.24;74.62;101296.84;4977049;28;20278;-80
2023/06/07 07:15:27;;;;;;;;;;;;;;;22.25;74.65;101294.97;4994132;28;20188;-84
2023/06/07 07:18:07;;;;;;;;;;;;;;;22.20;74.88;101295.56;5022069;28;20393;-82
2023/06/07 07:20:35;;;;;;;;;;;;;;;22.29;74.71;101304.38;5042386;28;19934;-83
2023/06/07 07:23:03;;;;;;;;;;;;;;;22.30;73.69;101300.63;5034985;28;20024;-82
2023/06/07 07:25:29;;;;;;;;;;;;;;;22.34;74.02;101307.34;5022733;28;19928;-82
2023/06/07 07:27:56;;;;;;;;;;;;;;;22.38;73.34;101306.75;5022766;28;20148;-84
2023/06/07 07:30:23;;;;;;;;;;;;;;;22.37;73.51;101301.53;5015132;28;20299;-84
2023/06/07 07:32:50;;;;;;;;;;;;;;;22.42;73.54;101306.34;5025954;28;19947;-83
2023/06/07 07:35:17;;;;;;;;;;;;;;;22.43;73.44;101300.75;5037315;28;19929;-84
2023/06/07 07:37:44;;;;;;;;;;;;;;;22.39;73.49;101305.69;5044150;28;20218;-82
2023/06/07 07:40:12;;;;;;;;;;;;;;;22.47;73.39;101312.00;5019193;28;20013;-83
2023/06/07 07:42:39;;;;;;;;;;;;;;;22.56;73.00;101306.22;5026073;28;19982;-83
2023/06/07 07:45:11;;;;;;;;;;;;;;;22.59;73.55;101310.41;5025451;28;20130;-83
2023/06/07 07:47:40;;;;;;;;;;;;;;;22.70;72.56;101312.56;5040845;28;19928;-81
2023/06/07 07:50:10;;;;;;;;;;;;;;;22.73;72.47;101308.63;5013002;28;20256;-83
2023/06/07 07:52:36;;;;;;;;;;;;;;;22.73;73.06;101312.16;5004522;28;20241;-83
2023/06/07 07:55:04;;;;;;;;;;;;;;;22.81;72.32;101309.28;5017764;28;20450;-81
2023/06/07 07:57:32;;;;;;;;;;;;;;;22.84;72.19;101313.47;5001652;28;20008;-84
2023/06/07 08:00:05;;;;;;;;;;;;;;;22.83;73.00;101317.22;4992255;28;20302;-84
2023/06/07 08:02:38;;;;;;;;;;;;;;;22.85;72.56;101315.16;4986129;28;20286;-82
2023/06/07 08:05:11;;;;;;;;;;;;;;;22.57;72.27;101266.47;4992924;28;20291;-83
2023/06/07 08:07:44;;;;;;;;;;;;;;;22.87;72.35;101310.38;5023043;28;20322;-82
2023/06/07 08:10:11;;;;;;;;;;;;;;;22.59;73.75;101257.13;4995235;28;20145;-82
2023/06/07 08:12:40;;;;;;;;;;;;;;;22.95;72.78;101304.78;4973150;28;20015;-83
2023/06/07 08:15:17;;;;;;;;;;;;;;;23.12;72.09;101309.88;5029700;28;19931;-83
2023/06/07 08:17:43;;;;;;;;;;;;;;;23.16;71.93;101301.16;5029487;28;20562;-80
2023/06/07 08:20:10;;;;;;;;;;;;;;;23.29;71.51;101299.53;5012359;28;19948;-82
2023/06/07 08:22:40;;;;;;;;;;;;;;;23.36;71.43;101308.53;5032178;28;19925;-82
2023/06/07 08:25:09;;;;;;;;;;;;;;;23.30;70.88;101312.84;4995144;28;20019;-84
2023/06/07 08:27:37;;;;;;;;;;;;;;;23.14;70.72;101281.56;5035025;28;19929;-81
2023/06/07 08:30:10;;;;;;;;;;;;;;;23.34;69.73;101300.59;5013159;28;20044;-83
2023/06/07 08:32:44;;;;;;;;;;;;;;;23.52;69.13;101300.03;4985405;28;19925;-83
2023/06/07 08:35:13;;;;;;;;;;;;;;;23.55;70.23;101298.78;4999764;28;20173;-84
2023/06/07 08:37:40;;;;;;;;;;;;;;;23.58;68.71;101296.47;4992971;28;20350;-83
2023/06/07 08:40:08;;;;;;;;;;;;;;;23.63;68.16;101302.13;4955201;28;20303;-84
2023/06/07 08:42:40;;;;;;;;;;;;;;;23.72;67.99;101304.66;4955732;28;19936;-83
2023/06/07 08:45:14;;;;;;;;;;;;;;;23.88;67.40;101304.25;4959756;28;20023;-84
2023/06/07 08:47:45;;;;;;;;;;;;;;;24.03;66.69;101302.19;4979616;28;19970;-83
2023/06/07 08:50:13;;;;;;;;;;;;;;;24.16;66.34;101295.09;4999998;28;19968;-83
2023/06/07 08:52:41;;;;;;;;;;;;;;;24.12;66.20;101291.97;5012865;28;20294;-83
2023/06/07 08:55:12;;;;;;;;;;;;;;;24.29;66.64;101304.03;5016032;28;19932;-82
2023/06/07 08:57:55;;;;;;;;;;;;;;;24.39;65.76;101303.63;5008989;28;20023;-83
2023/06/07 09:00:25;;;;;;;;;;;;;;;24.40;65.32;101304.47;5014685;28;20225;-83
2023/06/07 09:02:57;;;;;;;;;;;;;;;24.41;64.05;101304.25;5009295;28;19924;-84
2023/06/07 09:05:24;;;;;;;;;;;;;;;24.46;64.69;101312.59;4970016;28;20004;-83
2023/06/07 09:07:52;;;;;;;;;;;;;;;24.40;64.31;101310.72;5010362;28;19963;-84
2023/06/07 09:10:22;;;;;;;;;;;;;;;24.39;64.16;101319.91;5022551;28;20263;-83
2023/06/07 09:12:51;;;;;;;;;;;;;;;24.37;62.98;101313.88;5022810;28;19925;-83
2023/06/07 09:15:19;;;;;;;;;;;;;;;24.59;62.86;101316.34;5003956;28;19935;-83
2023/06/07 09:17:54;;;;;;;;;;;;;;;24.74;61.65;101311.53;4981383;28;20002;-84
2023/06/07 09:20:28;;;;;;;;;;;;;;;24.80;61.23;101309.84;5001831;28;19924;-84
2023/06/07 09:23:22;;;;;;;;;;;;;;;24.87;62.66;101318.78;5028414;28;19932;-84
2023/06/07 09:25:53;;;;;;;;;;;;;;;25.02;62.24;101313.09;5016769;28;20075;-83
2023/06/07 09:28:19;;;;;;;;;;;;;;;25.01;61.41;101297.88;4967738;28;19924;-84
2023/06/07 09:30:56;;;;;;;;;;;;;;;25.10;61.56;101300.13;5006694;28;20016;-84
2023/06/07 09:33:28;;;;;;;;;;;;;;;25.21;59.32;101305.94;5017334;28;20222;-84
2023/06/07 09:36:11;;;;;;;;;;;;;;;25.24;58.43;101303.63;5044803;28;20031;-85
2023/06/07 09:38:41;;;;;;;;;;;;;;;25.46;57.10;101303.28;5041439;28;19978;-83
2023/06/07 09:41:12;;;;;;;;;;;;;;;25.56;57.05;101301.78;5040261;28;19932;-84
2023/06/07 09:43:49;;;;;;;;;;;;;;;25.57;57.17;101303.44;5044153;28;20284;-83
2023/06/07 09:46:19;;;;;;;;;;;;;;;25.74;57.59;101283.88;5032872;28;19955;-83
2023/06/07 09:48:51;;;;;;;;;;;;;;;25.41;56.88;101248.75;5022447;28;19978;-84
2023/06/07 09:51:20;;;;;;;;;;;;;;;25.62;56.90;101289.19;5021227;28;20581;-84
2023/06/07 09:54:00;;;;;;;;;;;;;;;25.56;57.21;101284.66;5024988;28;19961;-84
2023/06/07 09:56:30;;;;;;;;;;;;;;;25.48;58.21;101293.03;5009582;28;20382;-85
2023/06/07 09:59:08;;;;;;;;;;;;;;;25.29;57.86;101289.38;5015027;28;20026;-84
2023/06/07 10:01:37;;;;;;;;;;;;;;;25.23;58.14;101296.53;5025552;28;20049;-85
2023/06/07 10:04:06;;;;;;;;;;;;;;;25.11;59.38;101292.78;5024065;28;20229;-84
2023/06/07 10:06:45;;;;;;;;;;;;;;;25.34;59.00;101284.97;5011048;28;20335;-83
2023/06/07 10:09:13;;;;;;;;;;;;;;;25.48;58.75;101287.59;5012561;28;20196;-83
2023/06/07 10:11:43;;;;;;;;;;;;;;;25.60;57.64;101283.13;5005439;28;20285;-85
2023/06/07 10:14:16;;;;;;;;;;;;;;;25.68;56.01;101280.16;5022073;28;20434;-84
2023/06/07 10:16:46;;;;;;;;;;;;;;;25.88;56.23;101277.31;5035940;28;19929;-86
2023/06/07 10:19:26;;;;;;;;;;;;;;;25.90;55.60;101233.56;5022935;28;22766;-84
2023/06/07 10:21:54;;;;;;;;;;;;;;;26.32;53.35;101277.34;5018042;28;20291;-85
2023/06/07 10:24:36;;;;;;;;;;;;;;;26.38;53.56;101281.88;5029142;28;20439;-84
2023/06/07 10:27:14;;;;;;;;;;;;;;;26.44;52.96;101267.38;5019299;28;20354;-85
2023/06/07 10:29:47;;;;;;;;;;;;;;;26.60;54.38;101263.25;5019965;28;19931;-84
2023/06/07 10:32:35;;;;;;;;;;;;;;;26.77;54.63;101258.03;5009821;28;19931;-82
2023/06/07 10:35:08;;;;;;;;;;;;;;;26.96;55.38;101256.13;5002018;28;19925;-83
2023/06/07 10:37:37;;;;;;;;;;;;;;;27.12;55.52;101258.22;5037353;28;20031;-84
2023/06/07 10:40:12;;;;;;;;;;;;;;;27.13;53.67;101245.41;5018212;28;19935;-83
2023/06/07 10:42:43;;;;;;;;;;;;;;;27.32;53.98;101247.06;5039354;28;20271;-84
2023/06/07 10:45:19;;;;;;;;;;;;;;;27.41;52.88;101242.94;5008903;28;20579;-83
2023/06/07 10:47:55;;;;;;;;;;;;;;;27.68;51.22;101231.63;5004405;28;20027;-84
2023/06/07 10:50:28;;;;;;;;;;;;;;;27.77;50.30;101230.22;4999048;28;19925;-84
2023/06/07 10:52:56;;;;;;;;;;;;;;;27.82;49.28;101227.63;5004839;28;19929;-84
2023/06/07 10:55:25;;;;;;;;;;;;;;;27.96;49.69;101225.50;5008721;28;20153;-84
2023/06/07 10:57:57;;;;;;;;;;;;;;;27.85;50.01;101180.78;5004720;28;20302;-83
2023/06/07 11:00:33;;;;;;;;;;;;;;;28.40;48.19;101225.09;5037237;28;20044;-85
2023/06/07 11:03:12;;;;;;;;;;;;;;;28.57;49.18;101222.50;5029055;28;20134;-85
2023/06/07 11:05:58;;;;;;;;;;;;;;;28.67;48.74;101228.19;5017028;28;20210;-84
2023/06/07 11:08:36;;;;;;;;;;;;;;;28.67;48.74;101223.56;5007705;28;20285;-84
2023/06/07 11:11:04;;;;;;;;;;;;;;;28.68;49.79;101225.19;5012202;28;19932;-84
2023/06/07 11:13:43;;;;;;;;;;;;;;;28.91;48.83;101217.97;5001470;28;19979;-84
2023/06/07 11:16:23;;;;;;;;;;;;;;;29.05;46.75;101218.53;5008311;28;20603;-84
2023/06/07 11:18:55;;;;;;;;;;;;;;;29.13;46.27;101216.28;5000323;28;20082;-83
2023/06/07 11:21:28;;;;;;;;;;;;;;;29.27;45.93;101218.69;4997656;28;20041;-85
2023/06/07 11:24:10;;;;;;;;;;;;;;;29.37;45.79;101216.13;5003049;28;20328;-85
2023/06/07 11:26:38;;;;;;;;;;;;;;;29.51;44.97;101201.06;5002889;28;19947;-85
2023/06/07 11:29:05;;;;;;;;;;;;;;;29.63;45.06;101191.94;5025057;28;19924;-85
2023/06/07 11:31:32;;;;;;;;;;;;;;;29.61;45.10;101190.31;5042129;28;20393;-84
2023/06/07 11:33:59;;;;;;;;;;;;;;;29.80;45.07;101196.34;5015508;28;20020;-83
2023/06/07 11:36:30;;;;;;;;;;;;;;;29.63;44.69;101186.47;4998529;28;20275;-86
2023/06/07 11:38:59;;;;;;;;;;;;;;;29.41;44.66;101184.47;5033672;28;19931;-85
2023/06/07 11:41:25;;;;;;;;;;;;;;;29.58;43.01;101190.78;5037681;28;19924;-83
2023/06/07 11:43:53;;;;;;;;;;;;;;;29.52;43.16;101186.31;5029718;28;19925;-85
2023/06/07 11:46:22;;;;;;;;;;;;;;;29.93;43.41;101188.88;5036964;28;20040;-86
2023/06/07 11:48:49;;;;;;;;;;;;;;;30.09;42.77;101184.47;4997485;28;19925;-84
2023/06/07 11:51:17;;;;;;;;;;;;;;;30.10;41.58;101183.38;5018626;28;19933;-82
2023/06/07 11:53:47;;;;;;;;;;;;;;;30.15;42.03;101175.25;4997341;28;19986;-85
2023/06/07 11:56:14;;;;;;;;;;;;;;;30.25;42.09;101178.16;5002987;28;19925;-86
2023/06/07 11:58:40;;;;;;;;;;;;;;;30.43;40.62;101168.78;5035192;28;19954;-82
2023/06/07 12:01:08;;;;;;;;;;;;;;;30.59;41.44;101172.53;5039452;28;19925;-85
2023/06/07 12:03:36;;;;;;;;;;;;;;;30.73;41.45;101168.31;5030668;28;20452;-85
2023/06/07 12:06:04;;;;;;;;;;;;;;;30.89;41.82;101169.31;5030912;28;19931;-85
2023/06/07 12:08:31;;;;;;;;;;;;;;;31.11;40.30;101166.50;5009545;28;20007;-84
2023/06/07 12:11:04;;;;;;;;;;;;;;;31.19;39.87;101171.53;5038472;28;19931;-86
2023/06/07 12:13:37;;;;;;;;;;;;;;;31.31;39.28;101171.34;5035408;28;20413;-85
2023/06/07 12:16:09;;;;;;;;;;;;;;;31.51;39.54;101163.34;5034189;28;20146;-85
2023/06/07 12:18:38;;;;;;;;;;;;;;;31.67;39.86;101167.00;5022741;28;19924;-83
2023/06/07 12:21:07;;;;;;;;;;;;;;;31.84;40.12;101166.00;5026543;28;20087;-84
2023/06/07 12:23:38;;;;;;;;;;;;;;;31.82;39.64;101168.19;5027701;28;20410;-84
2023/06/07 12:26:05;;;;;;;;;;;;;;;31.79;39.89;101179.72;5034787;28;20007;-85
2023/06/07 12:28:35;;;;;;;;;;;;;;;31.59;38.67;101169.41;5035667;28;19925;-82
2023/06/07 12:31:01;;;;;;;;;;;;;;;31.35;39.64;101163.44;4998356;28;20397;-84
2023/06/07 12:33:31;;;;;;;;;;;;;;;31.12;40.08;101170.94;5016173;28;20052;-83
2023/06/07 12:36:03;;;;;;;;;;;;;;;31.07;39.93;101162.63;5031857;28;20660;-83
2023/06/07 12:38:33;;;;;;;;;;;;;;;30.84;39.07;101156.38;5012194;28;20210;-84
2023/06/07 12:41:00;;;;;;;;;;;;;;;30.67;39.50;101152.88;4977526;28;20239;-85
2023/06/07 12:43:31;;;;;;;;;;;;;;;30.59;39.17;101154.19;4974639;28;19958;-85
2023/06/07 12:46:09;;;;;;;;;;;;;;;30.40;39.59;101147.38;4982591;28;19925;-83
2023/06/07 12:48:37;;;;;;;;;;;;;;;30.17;39.99;101156.63;5015512;28;20016;-84
2023/06/07 12:51:04;;;;;;;;;;;;;;;29.95;39.83;101148.41;5038813;28;20383;-84